createdAt,value
2022-08-19T00:04:19.003Z,16.9
2022-08-19T00:09:42.001Z,16.8
2022-08-19T00:15:28.754Z,16.8
2022-08-19T00:21:10.586Z,16.7
2022-08-19T00:26:42.813Z,16.6
2022-08-19T00:32:35.539Z,16.5
2022-08-19T00:38:13.851Z,16.4
2022-08-19T00:44:00.652Z,16.4
2022-08-19T00:48:50.049Z,16.3
2022-08-19T00:54:33.625Z,16.2
2022-08-19T01:00:52.820Z,16.1
2022-08-19T01:06:37.280Z,16
2022-08-19T01:12:25.416Z,15.9
2022-08-19T01:18:20.663Z,15.8
2022-08-19T01:24:13.023Z,15.8
2022-08-19T01:30:29.836Z,15.6
2022-08-19T01:36:31.809Z,15.6
2022-08-19T01:42:22.532Z,15.4
2022-08-19T01:48:36.103Z,15.3
2022-08-19T01:54:27.361Z,15.3
2022-08-19T01:59:48.089Z,15.2
2022-08-19T02:05:30.341Z,15.1
2022-08-19T02:11:24.174Z,15.1
2022-08-19T02:17:08.156Z,15
2022-08-19T02:22:49.421Z,14.9
2022-08-19T02:28:35.661Z,14.8
2022-08-19T02:34:13.517Z,14.8
2022-08-19T02:40:15.547Z,14.7
2022-08-19T02:46:31.786Z,14.6
2022-08-19T02:52:21.668Z,14.6
2022-08-19T02:58:03.122Z,14.5
2022-08-19T03:03:34.063Z,14.4
2022-08-19T03:09:46.549Z,14.4
2022-08-19T03:15:22.106Z,14.4
2022-08-19T03:20:49.246Z,14.4
2022-08-19T03:26:49.388Z,14.4
2022-08-19T03:33:41.138Z,14.3
2022-08-19T03:39:12.770Z,14.4
2022-08-19T03:45:46.114Z,14.3
2022-08-19T03:51:30.931Z,14.2
2022-08-19T03:57:08.906Z,14.3
2022-08-19T04:03:17.351Z,14.3
2022-08-19T04:09:02.160Z,14.4
2022-08-19T04:14:54.860Z,14.6
2022-08-19T04:20:23.534Z,14.9
2022-08-19T04:25:48.301Z,15.2
2022-08-19T04:31:30.790Z,15.6
2022-08-19T04:37:52.129Z,16.1
2022-08-19T04:43:30.173Z,16.5
2022-08-19T04:50:42.386Z,17.1
2022-08-19T04:56:27.078Z,17.6
2022-08-19T05:02:07.245Z,18.3
2022-08-19T05:07:34.945Z,18.9
2022-08-19T05:13:44.916Z,19.8
2022-08-19T05:19:44.067Z,20.6
2022-08-19T05:25:52.853Z,21.4
2022-08-19T05:31:37.012Z,22.4
2022-08-19T05:37:27.886Z,23.5
2022-08-19T05:43:11.563Z,24.6
2022-08-19T05:48:54.716Z,25.9
2022-08-19T05:54:37.990Z,27.1
2022-08-19T06:00:15.762Z,28.4
2022-08-19T06:06:08.448Z,29.8
2022-08-19T06:12:12.671Z,31.3
2022-08-19T06:18:09.413Z,32.8
2022-08-19T06:24:14.399Z,34.2
2022-08-19T06:30:15.389Z,35.7
2022-08-19T06:35:54.256Z,37.1
2022-08-19T06:41:31.531Z,38.4
2022-08-19T06:47:48.661Z,39.9
2022-08-19T07:00:01.253Z,42.9
2022-08-19T07:06:01.552Z,44.1
2022-08-19T07:12:43.085Z,45.8
2022-08-19T07:18:47.856Z,46.9
2022-08-19T07:25:07.467Z,48.2
2022-08-19T07:31:31.578Z,49.6
2022-08-19T07:37:21.865Z,50.6
2022-08-19T07:43:03.805Z,51.7
2022-08-19T07:49:19.119Z,53.1
2022-08-19T07:55:07.703Z,54.4
2022-08-19T08:01:16.817Z,55.8
2022-08-19T08:07:08.207Z,57
2022-08-19T08:14:04.589Z,56.8
2022-08-19T08:20:54.609Z,51.7
2022-08-19T08:26:35.901Z,55.5
2022-08-19T08:32:49.925Z,57.6
2022-08-19T08:38:44.753Z,58.9
2022-08-19T08:50:48.008Z,52.1
2022-08-19T08:56:52.381Z,55.9
2022-08-19T09:02:43.323Z,58.6
2022-08-19T09:09:13.436Z,57.9
2022-08-19T09:16:10.787Z,54.1
2022-08-19T09:22:19.964Z,58.1
2022-08-19T09:29:05.259Z,59.2
2022-08-19T09:35:19.770Z,53.3
2022-08-19T09:41:26.348Z,58.3
2022-08-19T09:53:31.008Z,53.2
2022-08-19T09:59:25.595Z,58.8
2022-08-19T10:05:43.111Z,57.4
2022-08-19T10:12:51.808Z,53.9
2022-08-19T10:19:15.473Z,54.3
2022-08-19T10:25:22.627Z,54.3
2022-08-19T10:31:21.739Z,54.6
2022-08-19T10:38:54.790Z,54.8
2022-08-19T10:44:38.333Z,55.2
2022-08-19T10:50:31.072Z,55.3
2022-08-19T10:56:57.933Z,55.3
2022-08-19T11:03:05.509Z,55.6
2022-08-19T11:09:14.308Z,55.8
2022-08-19T11:14:54.290Z,55.9
2022-08-19T11:20:36.511Z,56
2022-08-19T11:26:23.596Z,56
2022-08-19T11:32:03.089Z,56
2022-08-19T11:37:45.885Z,55.9
2022-08-19T11:43:23.934Z,55.9
2022-08-19T11:49:13.753Z,56.1
2022-08-19T11:54:55.373Z,55.8
2022-08-19T12:00:42.303Z,55.7
2022-08-19T12:06:25.168Z,55.5
2022-08-19T12:12:11.359Z,55.8
2022-08-19T12:17:48.963Z,55.8
2022-08-19T12:23:28.228Z,55.6
2022-08-19T12:29:26.114Z,55.7
2022-08-19T12:35:03.929Z,55.2
2022-08-19T12:40:49.079Z,54.7
2022-08-19T12:46:40.253Z,54.7
2022-08-19T12:53:35.417Z,54.9
2022-08-19T12:59:24.580Z,54.6
2022-08-19T13:04:51.843Z,54.4
2022-08-19T13:10:33.902Z,55.3
2022-08-19T13:16:23.213Z,54
2022-08-19T13:22:06.375Z,56.6
2022-08-19T13:27:57.409Z,57.3
2022-08-19T13:33:49.892Z,57.3
2022-08-19T13:39:32.366Z,57.6
2022-08-19T13:45:23.743Z,55.8
2022-08-19T13:51:06.987Z,52.8
2022-08-19T13:56:58.177Z,53.5
2022-08-19T14:02:36.629Z,53.6
2022-08-19T14:08:14.138Z,53.3
2022-08-19T14:13:57.813Z,53
2022-08-19T14:19:40.828Z,52.3
2022-08-19T14:25:30.185Z,51.4
2022-08-19T14:31:13.034Z,50.9
2022-08-19T14:36:55.981Z,50.4
2022-08-19T14:42:46.717Z,49.8
2022-08-19T14:48:35.366Z,49.3
2022-08-19T14:54:10.825Z,48.6
2022-08-19T15:00:14.654Z,47.9
2022-08-19T15:06:12.574Z,47.1
2022-08-19T15:11:56.093Z,46.5
2022-08-19T15:18:02.665Z,45.2
2022-08-19T15:23:28.329Z,44.6
2022-08-19T15:29:07.438Z,43.7
2022-08-19T15:34:56.573Z,42.6
2022-08-19T15:40:37.651Z,41.9
2022-08-19T15:46:17.056Z,40.9
2022-08-19T15:52:03.427Z,39.9
2022-08-19T15:58:20.472Z,39.2
2022-08-19T16:04:47.700Z,38.4
2022-08-19T16:11:01.093Z,37.7
2022-08-19T16:16:50.086Z,37
2022-08-19T16:22:31.925Z,36.5
2022-08-19T16:28:24.731Z,35.9
2022-08-19T16:34:16.134Z,35.3
2022-08-19T16:40:00.995Z,34.9
2022-08-19T16:45:42.857Z,34.3
2022-08-19T16:52:00.197Z,33.8
2022-08-19T16:57:45.915Z,33.3
2022-08-19T17:03:36.115Z,32.8
2022-08-19T17:09:26.384Z,32.3
2022-08-19T17:15:40.133Z,31.9
2022-08-19T17:21:20.646Z,31.4
2022-08-19T17:27:09.936Z,30.9
2022-08-19T17:32:41.792Z,30.6
2022-08-19T17:38:22.090Z,30.1
2022-08-19T17:44:22.273Z,29.8
2022-08-19T17:50:06.349Z,29.3
2022-08-19T17:55:48.651Z,29
2022-08-19T18:02:08.591Z,28.7
2022-08-19T18:07:44.590Z,28.3
2022-08-19T18:13:34.460Z,28.1
2022-08-19T18:19:11.669Z,27.8
2022-08-19T18:25:30.614Z,27.5
2022-08-19T18:31:08.272Z,27.3
2022-08-19T18:36:55.615Z,27.1
2022-08-19T18:42:21.180Z,26.8
2022-08-19T18:48:10.758Z,26.6
2022-08-19T18:54:05.188Z,26.5
2022-08-19T18:59:44.598Z,26.3
2022-08-19T19:05:23.964Z,26.1
2022-08-19T19:11:02.542Z,25.9
2022-08-19T19:17:03.559Z,25.6
2022-08-19T19:22:37.639Z,25.4
2022-08-19T19:28:47.390Z,25.1
2022-08-19T19:34:46.083Z,24.9
2022-08-19T19:40:36.351Z,24.7
2022-08-19T19:46:32.168Z,24.4
2022-08-19T19:52:47.951Z,24.1
2022-08-19T19:58:29.335Z,23.9
2022-08-19T20:04:20.330Z,23.6
2022-08-19T20:10:06.220Z,23.4
2022-08-19T20:15:43.885Z,23.1
2022-08-19T20:20:49.330Z,23
2022-08-19T20:27:10.206Z,22.8
2022-08-19T20:33:44.218Z,22.7
2022-08-19T20:39:27.102Z,22.6
2022-08-19T20:45:08.552Z,22.4
2022-08-19T20:51:12.209Z,22.4
2022-08-19T20:56:56.052Z,22.3
2022-08-19T21:02:39.230Z,22.2
2022-08-19T21:08:39.707Z,22
2022-08-19T21:14:31.335Z,21.8
2022-08-19T21:20:14.209Z,21.8
2022-08-19T21:26:10.463Z,21.6
2022-08-19T21:31:43.750Z,21.5
2022-08-19T21:37:42.175Z,21.3
2022-08-19T21:43:28.451Z,21.2
2022-08-19T21:48:39.040Z,21
2022-08-19T21:54:22.639Z,20.8
2022-08-19T22:00:02.069Z,20.6
2022-08-19T22:05:46.245Z,20.4
2022-08-19T22:11:29.451Z,20.3
2022-08-19T22:17:06.952Z,20.2
2022-08-19T22:23:07.729Z,20.1
2022-08-19T22:28:46.737Z,20.1
2022-08-19T22:35:03.272Z,20.2
2022-08-19T22:40:24.448Z,20.3
2022-08-19T22:45:47.724Z,20.4
2022-08-19T22:51:44.592Z,20.4
2022-08-19T22:57:06.149Z,20.5
2022-08-19T23:03:08.940Z,20.6
2022-08-19T23:08:52.238Z,20.7
2022-08-19T23:14:42.889Z,20.8
2022-08-19T23:20:28.608Z,20.9
2022-08-19T23:25:51.055Z,20.9
2022-08-19T23:31:37.083Z,20.9
2022-08-19T23:37:35.360Z,21.1
2022-08-19T23:43:14.756Z,21.1
2022-08-19T23:55:16.441Z,21.2
